Impacts METAR Board
IDs:

KPIT - Pittsburgh Intl, PA, US

Updated at: 2200 UTC 21 May 2022
Potential Impact None Slight Moderate High
Time 21/10Z 21/11Z 21/12Z 21/13Z 21/14Z 21/15Z 21/16Z 21/17Z 21/18Z 21/19Z 21/20Z 21/21Z 21/22Z
Temp73 73 75 77 79 81 83 84 84 86 86 87 87
Dewpt60 60 61 62 62 64 64 65 63 63 63 61 61
Altim29.99 30.01 30.02 30.03 30.03 30.04 30.05 30.04 30.03 30.04 30.01 30.00 29.98
VIS10 10 10 10 10 10 10 10 10 10 10 10 10
CIG-- -- -- -- 250 -- -- 250 50 -- -- -- --
CoverFEWFEWFEWFEWBKNSCTSCTBKNBKNSCTSCTSCTSCT
FltCatVFRVFRVFRVFRVFRVFRVFRVFRVFRVFRVFRVFRVFR
WX--------------------------
WDir200200200210230240240240200200200220200
WSpd6 8 7 9 11 14 14 8 10 12 12 10 11
WGst-- -- -- -- 19 19 18 -- -- 17 -- 24 --
Raw hourly METARs
KPIT 210951Z 20006KT 10SM FEW080 23/16 A2999 RMK AO2 SLP153 T02280156
KPIT 211051Z 20008KT 10SM FEW100 FEW250 23/16 A3001 RMK AO2 SLP158 T02280156
KPIT 211151Z 20007KT 10SM FEW250 24/16 A3002 RMK AO2 SLP162 70002 T02390161 10239 20228 51016
KPIT 211251Z 21009KT 10SM FEW250 25/17 A3003 RMK AO2 SLP165 T02500167
KPIT 211351Z 23011G19KT 10SM SCT080 BKN250 26/17 A3003 RMK AO2 SLP165 T02610167
KPIT 211451Z 24014G19KT 10SM FEW060 SCT250 27/18 A3004 RMK AO2 SLP168 T02720178 53007
KPIT 211551Z 24014G18KT 10SM SCT042 SCT250 28/18 A3005 RMK AO2 SLP170 T02830178
KPIT 211651Z 24008KT 210V270 10SM SCT043 SCT080 BKN250 29/18 A3004 RMK AO2 SLP169 T02890183
KPIT 211751Z 20010KT 170V230 10SM BKN050 BKN250 29/17 A3003 RMK AO2 SLP164 T02890172 10294 20239 58003
KPIT 211851Z 20012G17KT 10SM SCT050 SCT250 30/17 A3004 RMK AO2 SLP167 T03000172
KPIT 211951Z 20012KT 10SM FEW050 SCT250 30/17 A3001 RMK AO2 SLP157 T03000172
KPIT 212051Z 22010G24KT 10SM SCT055 SCT250 31/16 A3000 RMK AO2 SLP153 T03060161 58010
KPIT 212151Z 20011KT 10SM FEW050 SCT250 31/16 A2998 RMK AO2 SLP148 T03060161



Page loaded:  22:50 UTC  |   03:50 PM Pacific  |   04:50 PM Mountain  |   05:50 PM Central  |   06:50 PM Eastern

 

ADVISORIES

FORECASTS

FORECASTS

OBSERVATIONS

USER TOOLS

ABOUT US